Terminal Aerodrome Forecast
Issued by NWS Duluth, MN

Home | Current Version | Previous Version | Text Only | Print | Product List | Glossary On
Versions: 1 2 3 4 5 6 7 8 9 10 11 12 13 14 15 16 17 18 19 20 21 22 23 24 25 26 27 28 29 30 31 32 33
525
FTUS43 KDLH 241908 AAC
TAFINL
TAF AMD
KINL 241908Z 2419/2518 23007KT P6SM VCSH BKN015 OVC025
      TEMPO 2419/2421 SCT015 BKN025
     FM242100 25004KT P6SM -SHRA OVC015
     FM250300 30003KT P6SM SCT004 OVC008
     FM251400 35006KT P6SM BKN008 OVC015=

USA.gov is the U.S. government's official web portal to all federal, state and local government web resources and services.